sensor_id;sensor_type;location;lat;lon;timestamp;P1;durP1;ratioP1;P2;durP2;ratioP2
29370;SDS011;16357;52.188;7.838;2024-01-06T00:01:14;11.07;;;8.13;;
29370;SDS011;16357;52.188;7.838;2024-01-06T00:03:44;12.05;;;9.02;;
29370;SDS011;16357;52.188;7.838;2024-01-06T00:06:11;11.82;;;9.10;;
29370;SDS011;16357;52.188;7.838;2024-01-06T00:08:39;12.07;;;8.93;;
29370;SDS011;16357;52.188;7.838;2024-01-06T00:11:05;11.10;;;8.30;;
29370;SDS011;16357;52.188;7.838;2024-01-06T00:13:32;12.05;;;9.13;;
29370;SDS011;16357;52.188;7.838;2024-01-06T00:15:58;11.88;;;8.85;;
29370;SDS011;16357;52.188;7.838;2024-01-06T00:18:26;10.93;;;8.73;;
29370;SDS011;16357;52.188;7.838;2024-01-06T00:20:53;9.88;;;7.95;;
29370;SDS011;16357;52.188;7.838;2024-01-06T00:23:20;10.30;;;7.75;;
29370;SDS011;16357;52.188;7.838;2024-01-06T00:25:47;10.30;;;7.95;;
29370;SDS011;16357;52.188;7.838;2024-01-06T00:28:13;10.77;;;7.45;;
29370;SDS011;16357;52.188;7.838;2024-01-06T00:30:39;11.93;;;8.90;;
29370;SDS011;16357;52.188;7.838;2024-01-06T00:33:06;12.13;;;9.02;;
29370;SDS011;16357;52.188;7.838;2024-01-06T00:35:32;10.57;;;7.85;;
29370;SDS011;16357;52.188;7.838;2024-01-06T00:37:59;10.70;;;8.23;;
29370;SDS011;16357;52.188;7.838;2024-01-06T00:40:26;11.07;;;8.40;;
29370;SDS011;16357;52.188;7.838;2024-01-06T00:42:53;11.15;;;8.40;;
29370;SDS011;16357;52.188;7.838;2024-01-06T00:45:20;11.77;;;8.38;;
29370;SDS011;16357;52.188;7.838;2024-01-06T00:47:47;11.57;;;7.85;;
29370;SDS011;16357;52.188;7.838;2024-01-06T00:50:13;11.57;;;8.00;;
29370;SDS011;16357;52.188;7.838;2024-01-06T00:52:41;11.40;;;8.00;;
29370;SDS011;16357;52.188;7.838;2024-01-06T00:55:07;10.27;;;7.47;;
29370;SDS011;16357;52.188;7.838;2024-01-06T00:57:34;10.95;;;7.80;;
29370;SDS011;16357;52.188;7.838;2024-01-06T01:00:01;10.48;;;7.75;;
29370;SDS011;16357;52.188;7.838;2024-01-06T01:02:28;11.63;;;7.78;;
29370;SDS011;16357;52.188;7.838;2024-01-06T01:04:54;10.07;;;7.55;;
29370;SDS011;16357;52.188;7.838;2024-01-06T01:07:21;12.95;;;7.82;;
29370;SDS011;16357;52.188;7.838;2024-01-06T01:09:47;11.85;;;8.00;;
29370;SDS011;16357;52.188;7.838;2024-01-06T01:12:14;12.13;;;8.45;;
29370;SDS011;16357;52.188;7.838;2024-01-06T01:14:40;10.93;;;7.72;;
29370;SDS011;16357;52.188;7.838;2024-01-06T01:17:07;11.50;;;8.13;;
29370;SDS011;16357;52.188;7.838;2024-01-06T01:19:33;12.10;;;8.85;;
29370;SDS011;16357;52.188;7.838;2024-01-06T01:22:00;12.30;;;8.82;;
29370;SDS011;16357;52.188;7.838;2024-01-06T01:24:26;12.93;;;8.52;;
29370;SDS011;16357;52.188;7.838;2024-01-06T01:26:53;12.13;;;8.45;;
29370;SDS011;16357;52.188;7.838;2024-01-06T01:29:19;12.30;;;8.70;;
29370;SDS011;16357;52.188;7.838;2024-01-06T01:31:46;12.27;;;8.40;;
29370;SDS011;16357;52.188;7.838;2024-01-06T01:34:13;13.35;;;8.45;;
29370;SDS011;16357;52.188;7.838;2024-01-06T01:36:40;11.80;;;8.30;;
29370;SDS011;16357;52.188;7.838;2024-01-06T01:39:07;12.52;;;8.27;;
29370;SDS011;16357;52.188;7.838;2024-01-06T01:41:34;12.35;;;8.05;;
29370;SDS011;16357;52.188;7.838;2024-01-06T01:44:00;10.93;;;7.32;;
29370;SDS011;16357;52.188;7.838;2024-01-06T01:46:27;10.70;;;7.10;;
29370;SDS011;16357;52.188;7.838;2024-01-06T01:48:55;9.30;;;6.55;;
29370;SDS011;16357;52.188;7.838;2024-01-06T01:51:26;9.50;;;6.90;;
29370;SDS011;16357;52.188;7.838;2024-01-06T01:53:55;12.07;;;6.55;;
29370;SDS011;16357;52.188;7.838;2024-01-06T01:56:23;9.75;;;6.25;;
29370;SDS011;16357;52.188;7.838;2024-01-06T01:58:50;9.70;;;6.70;;
29370;SDS011;16357;52.188;7.838;2024-01-06T02:01:17;10.30;;;6.28;;
29370;SDS011;16357;52.188;7.838;2024-01-06T02:03:44;9.02;;;6.15;;
29370;SDS011;16357;52.188;7.838;2024-01-06T02:06:11;8.13;;;5.55;;
29370;SDS011;16357;52.188;7.838;2024-01-06T02:08:38;8.02;;;5.78;;
29370;SDS011;16357;52.188;7.838;2024-01-06T02:11:05;7.63;;;5.70;;
29370;SDS011;16357;52.188;7.838;2024-01-06T02:13:35;8.45;;;5.78;;
29370;SDS011;16357;52.188;7.838;2024-01-06T02:16:02;7.25;;;5.70;;
29370;SDS011;16357;52.188;7.838;2024-01-06T02:18:31;6.63;;;5.70;;
29370;SDS011;16357;52.188;7.838;2024-01-06T02:20:59;7.32;;;5.72;;
29370;SDS011;16357;52.188;7.838;2024-01-06T02:23:27;7.97;;;5.70;;
29370;SDS011;16357;52.188;7.838;2024-01-06T02:25:54;8.00;;;6.03;;
29370;SDS011;16357;52.188;7.838;2024-01-06T02:28:21;7.78;;;6.22;;
29370;SDS011;16357;52.188;7.838;2024-01-06T02:30:48;7.63;;;5.95;;
29370;SDS011;16357;52.188;7.838;2024-01-06T02:33:16;9.57;;;6.93;;
29370;SDS011;16357;52.188;7.838;2024-01-06T02:35:45;8.93;;;6.68;;
29370;SDS011;16357;52.188;7.838;2024-01-06T02:38:12;8.77;;;7.28;;
29370;SDS011;16357;52.188;7.838;2024-01-06T02:40:39;10.48;;;8.50;;
29370;SDS011;16357;52.188;7.838;2024-01-06T02:43:05;9.68;;;8.00;;
29370;SDS011;16357;52.188;7.838;2024-01-06T02:45:32;9.63;;;7.70;;
29370;SDS011;16357;52.188;7.838;2024-01-06T02:47:58;10.65;;;7.50;;
29370;SDS011;16357;52.188;7.838;2024-01-06T02:50:25;9.93;;;8.23;;
29370;SDS011;16357;52.188;7.838;2024-01-06T02:52:51;10.13;;;8.40;;
29370;SDS011;16357;52.188;7.838;2024-01-06T02:55:18;9.93;;;8.02;;
29370;SDS011;16357;52.188;7.838;2024-01-06T02:57:44;11.65;;;8.50;;
29370;SDS011;16357;52.188;7.838;2024-01-06T03:00:11;10.48;;;8.13;;
29370;SDS011;16357;52.188;7.838;2024-01-06T03:02:39;10.80;;;8.20;;
29370;SDS011;16357;52.188;7.838;2024-01-06T03:05:08;12.18;;;8.45;;
29370;SDS011;16357;52.188;7.838;2024-01-06T03:07:36;10.75;;;8.38;;
29370;SDS011;16357;52.188;7.838;2024-01-06T03:10:02;12.20;;;8.98;;
29370;SDS011;16357;52.188;7.838;2024-01-06T03:12:29;10.18;;;8.05;;
29370;SDS011;16357;52.188;7.838;2024-01-06T03:14:55;11.77;;;8.95;;
29370;SDS011;16357;52.188;7.838;2024-01-06T03:17:22;12.27;;;8.70;;
29370;SDS011;16357;52.188;7.838;2024-01-06T03:19:48;11.98;;;8.75;;
29370;SDS011;16357;52.188;7.838;2024-01-06T03:22:16;12.02;;;9.45;;
29370;SDS011;16357;52.188;7.838;2024-01-06T03:24:42;12.25;;;9.60;;
29370;SDS011;16357;52.188;7.838;2024-01-06T03:27:09;12.80;;;9.25;;
29370;SDS011;16357;52.188;7.838;2024-01-06T03:29:35;13.00;;;9.18;;
29370;SDS011;16357;52.188;7.838;2024-01-06T03:32:02;12.38;;;8.98;;
29370;SDS011;16357;52.188;7.838;2024-01-06T03:34:29;13.80;;;9.52;;
29370;SDS011;16357;52.188;7.838;2024-01-06T03:36:55;10.85;;;8.38;;
29370;SDS011;16357;52.188;7.838;2024-01-06T03:39:22;11.18;;;8.35;;
29370;SDS011;16357;52.188;7.838;2024-01-06T03:41:48;10.57;;;8.30;;
29370;SDS011;16357;52.188;7.838;2024-01-06T03:44:15;9.35;;;7.22;;
29370;SDS011;16357;52.188;7.838;2024-01-06T03:46:41;9.60;;;7.45;;
29370;SDS011;16357;52.188;7.838;2024-01-06T03:49:08;9.63;;;7.43;;
29370;SDS011;16357;52.188;7.838;2024-01-06T03:51:35;10.02;;;7.57;;
29370;SDS011;16357;52.188;7.838;2024-01-06T03:54:01;10.55;;;8.10;;
29370;SDS011;16357;52.188;7.838;2024-01-06T03:56:28;10.73;;;8.02;;
29370;SDS011;16357;52.188;7.838;2024-01-06T03:58:54;14.10;;;8.73;;
29370;SDS011;16357;52.188;7.838;2024-01-06T04:01:20;12.57;;;8.43;;
29370;SDS011;16357;52.188;7.838;2024-01-06T04:03:47;12.05;;;8.23;;
29370;SDS011;16357;52.188;7.838;2024-01-06T04:06:14;12.07;;;8.82;;
29370;SDS011;16357;52.188;7.838;2024-01-06T04:08:40;15.23;;;9.63;;
29370;SDS011;16357;52.188;7.838;2024-01-06T04:11:07;14.05;;;9.43;;
29370;SDS011;16357;52.188;7.838;2024-01-06T04:13:34;15.63;;;10.02;;
29370;SDS011;16357;52.188;7.838;2024-01-06T04:16:00;16.27;;;9.93;;
29370;SDS011;16357;52.188;7.838;2024-01-06T04:18:27;13.05;;;9.35;;
29370;SDS011;16357;52.188;7.838;2024-01-06T04:20:53;11.45;;;8.82;;
29370;SDS011;16357;52.188;7.838;2024-01-06T04:23:20;14.27;;;9.25;;
29370;SDS011;16357;52.188;7.838;2024-01-06T04:25:51;12.55;;;8.85;;
29370;SDS011;16357;52.188;7.838;2024-01-06T04:28:17;15.60;;;9.07;;
29370;SDS011;16357;52.188;7.838;2024-01-06T04:30:44;13.10;;;8.70;;
29370;SDS011;16357;52.188;7.838;2024-01-06T04:33:10;13.70;;;8.63;;
29370;SDS011;16357;52.188;7.838;2024-01-06T04:35:37;12.85;;;8.38;;
29370;SDS011;16357;52.188;7.838;2024-01-06T04:38:03;12.15;;;8.65;;
29370;SDS011;16357;52.188;7.838;2024-01-06T04:40:30;11.82;;;8.55;;
29370;SDS011;16357;52.188;7.838;2024-01-06T04:42:57;10.30;;;7.80;;
29370;SDS011;16357;52.188;7.838;2024-01-06T04:45:23;10.82;;;8.63;;
29370;SDS011;16357;52.188;7.838;2024-01-06T04:47:50;10.45;;;8.07;;
29370;SDS011;16357;52.188;7.838;2024-01-06T04:50:17;9.98;;;7.43;;
29370;SDS011;16357;52.188;7.838;2024-01-06T04:52:44;11.35;;;7.95;;
29370;SDS011;16357;52.188;7.838;2024-01-06T04:55:10;13.68;;;9.27;;
29370;SDS011;16357;52.188;7.838;2024-01-06T04:57:37;12.32;;;9.45;;
29370;SDS011;16357;52.188;7.838;2024-01-06T05:00:03;11.13;;;8.77;;
29370;SDS011;16357;52.188;7.838;2024-01-06T05:02:30;12.02;;;9.32;;
29370;SDS011;16357;52.188;7.838;2024-01-06T05:04:57;15.10;;;9.75;;
29370;SDS011;16357;52.188;7.838;2024-01-06T05:07:24;13.27;;;9.63;;
29370;SDS011;16357;52.188;7.838;2024-01-06T05:09:50;14.40;;;9.85;;
29370;SDS011;16357;52.188;7.838;2024-01-06T05:12:16;16.20;;;10.27;;
29370;SDS011;16357;52.188;7.838;2024-01-06T05:14:43;14.45;;;9.75;;
29370;SDS011;16357;52.188;7.838;2024-01-06T05:17:09;14.02;;;9.98;;
29370;SDS011;16357;52.188;7.838;2024-01-06T05:19:36;13.35;;;9.90;;
29370;SDS011;16357;52.188;7.838;2024-01-06T05:22:02;14.88;;;9.95;;
29370;SDS011;16357;52.188;7.838;2024-01-06T05:24:29;14.10;;;9.90;;
29370;SDS011;16357;52.188;7.838;2024-01-06T05:26:56;14.88;;;10.02;;
29370;SDS011;16357;52.188;7.838;2024-01-06T05:29:22;13.98;;;9.23;;
29370;SDS011;16357;52.188;7.838;2024-01-06T05:31:50;13.80;;;9.43;;
29370;SDS011;16357;52.188;7.838;2024-01-06T05:34:16;12.75;;;8.93;;
29370;SDS011;16357;52.188;7.838;2024-01-06T05:36:43;12.40;;;8.45;;
29370;SDS011;16357;52.188;7.838;2024-01-06T05:39:09;15.00;;;8.50;;
29370;SDS011;16357;52.188;7.838;2024-01-06T05:41:37;12.30;;;8.60;;
29370;SDS011;16357;52.188;7.838;2024-01-06T05:44:05;12.63;;;8.00;;
29370;SDS011;16357;52.188;7.838;2024-01-06T05:46:31;11.63;;;7.88;;
29370;SDS011;16357;52.188;7.838;2024-01-06T05:48:58;11.23;;;7.40;;
29370;SDS011;16357;52.188;7.838;2024-01-06T05:51:26;9.75;;;7.00;;
29370;SDS011;16357;52.188;7.838;2024-01-06T05:53:52;10.73;;;7.53;;
29370;SDS011;16357;52.188;7.838;2024-01-06T05:56:22;10.23;;;6.75;;
29370;SDS011;16357;52.188;7.838;2024-01-06T05:58:52;11.13;;;7.28;;
29370;SDS011;16357;52.188;7.838;2024-01-06T06:01:19;10.32;;;7.07;;
29370;SDS011;16357;52.188;7.838;2024-01-06T06:03:50;11.18;;;7.95;;
29370;SDS011;16357;52.188;7.838;2024-01-06T06:06:17;10.50;;;7.70;;
29370;SDS011;16357;52.188;7.838;2024-01-06T06:08:44;9.45;;;7.15;;
29370;SDS011;16357;52.188;7.838;2024-01-06T06:11:11;9.10;;;6.88;;
29370;SDS011;16357;52.188;7.838;2024-01-06T06:13:38;9.30;;;7.05;;
29370;SDS011;16357;52.188;7.838;2024-01-06T06:16:07;9.20;;;6.85;;
29370;SDS011;16357;52.188;7.838;2024-01-06T06:18:35;9.68;;;6.38;;
29370;SDS011;16357;52.188;7.838;2024-01-06T06:21:02;7.90;;;5.82;;
29370;SDS011;16357;52.188;7.838;2024-01-06T06:23:30;5.72;;;4.50;;
29370;SDS011;16357;52.188;7.838;2024-01-06T06:25:57;6.35;;;4.57;;
29370;SDS011;16357;52.188;7.838;2024-01-06T06:28:25;6.07;;;4.60;;
29370;SDS011;16357;52.188;7.838;2024-01-06T06:30:52;6.55;;;4.80;;
29370;SDS011;16357;52.188;7.838;2024-01-06T06:33:19;6.13;;;4.60;;
29370;SDS011;16357;52.188;7.838;2024-01-06T06:35:46;6.30;;;4.47;;
29370;SDS011;16357;52.188;7.838;2024-01-06T06:38:12;9.98;;;5.13;;
29370;SDS011;16357;52.188;7.838;2024-01-06T06:40:39;6.93;;;5.25;;
29370;SDS011;16357;52.188;7.838;2024-01-06T06:43:05;8.73;;;5.65;;
29370;SDS011;16357;52.188;7.838;2024-01-06T06:45:31;8.48;;;6.43;;
29370;SDS011;16357;52.188;7.838;2024-01-06T06:47:58;7.10;;;5.30;;
29370;SDS011;16357;52.188;7.838;2024-01-06T06:50:25;7.28;;;5.15;;
29370;SDS011;16357;52.188;7.838;2024-01-06T06:52:51;7.65;;;5.32;;
29370;SDS011;16357;52.188;7.838;2024-01-06T06:55:18;9.35;;;5.70;;
29370;SDS011;16357;52.188;7.838;2024-01-06T06:57:45;8.25;;;6.15;;
29370;SDS011;16357;52.188;7.838;2024-01-06T07:00:12;7.95;;;5.97;;
29370;SDS011;16357;52.188;7.838;2024-01-06T07:02:39;9.80;;;6.30;;
29370;SDS011;16357;52.188;7.838;2024-01-06T07:05:05;9.00;;;6.55;;
29370;SDS011;16357;52.188;7.838;2024-01-06T07:07:33;9.32;;;6.55;;
29370;SDS011;16357;52.188;7.838;2024-01-06T07:10:00;10.93;;;7.38;;
29370;SDS011;16357;52.188;7.838;2024-01-06T07:12:28;9.85;;;7.32;;
29370;SDS011;16357;52.188;7.838;2024-01-06T07:14:55;12.00;;;8.32;;
29370;SDS011;16357;52.188;7.838;2024-01-06T07:17:21;12.32;;;8.52;;
29370;SDS011;16357;52.188;7.838;2024-01-06T07:19:47;12.80;;;8.50;;
29370;SDS011;16357;52.188;7.838;2024-01-06T07:22:15;10.57;;;7.82;;
29370;SDS011;16357;52.188;7.838;2024-01-06T07:24:43;10.35;;;7.68;;
29370;SDS011;16357;52.188;7.838;2024-01-06T07:27:09;11.20;;;8.25;;
29370;SDS011;16357;52.188;7.838;2024-01-06T07:29:36;12.30;;;8.90;;
29370;SDS011;16357;52.188;7.838;2024-01-06T07:32:03;11.85;;;8.27;;
29370;SDS011;16357;52.188;7.838;2024-01-06T07:34:30;10.93;;;7.72;;
29370;SDS011;16357;52.188;7.838;2024-01-06T07:36:56;11.23;;;6.85;;
29370;SDS011;16357;52.188;7.838;2024-01-06T07:39:23;8.68;;;5.93;;
29370;SDS011;16357;52.188;7.838;2024-01-06T07:41:50;9.30;;;5.80;;
29370;SDS011;16357;52.188;7.838;2024-01-06T07:44:17;7.70;;;5.97;;
29370;SDS011;16357;52.188;7.838;2024-01-06T07:46:51;8.60;;;5.78;;
29370;SDS011;16357;52.188;7.838;2024-01-06T07:49:18;7.55;;;5.70;;
29370;SDS011;16357;52.188;7.838;2024-01-06T07:51:45;10.75;;;5.82;;
29370;SDS011;16357;52.188;7.838;2024-01-06T07:54:12;8.55;;;6.28;;
29370;SDS011;16357;52.188;7.838;2024-01-06T07:56:38;8.55;;;5.82;;
29370;SDS011;16357;52.188;7.838;2024-01-06T07:59:05;7.68;;;5.82;;
29370;SDS011;16357;52.188;7.838;2024-01-06T08:01:32;9.38;;;6.00;;
29370;SDS011;16357;52.188;7.838;2024-01-06T08:03:59;7.57;;;5.60;;
29370;SDS011;16357;52.188;7.838;2024-01-06T08:06:26;9.15;;;6.43;;
29370;SDS011;16357;52.188;7.838;2024-01-06T08:08:53;10.73;;;6.63;;
29370;SDS011;16357;52.188;7.838;2024-01-06T08:11:19;9.52;;;6.65;;
29370;SDS011;16357;52.188;7.838;2024-01-06T08:13:46;8.65;;;6.22;;
29370;SDS011;16357;52.188;7.838;2024-01-06T08:16:12;7.47;;;5.38;;
29370;SDS011;16357;52.188;7.838;2024-01-06T08:18:39;9.00;;;6.07;;
29370;SDS011;16357;52.188;7.838;2024-01-06T08:21:05;8.70;;;6.10;;
29370;SDS011;16357;52.188;7.838;2024-01-06T08:23:32;7.43;;;6.00;;
29370;SDS011;16357;52.188;7.838;2024-01-06T08:25:58;10.75;;;6.20;;
29370;SDS011;16357;52.188;7.838;2024-01-06T08:28:25;8.88;;;6.22;;
29370;SDS011;16357;52.188;7.838;2024-01-06T08:30:51;8.60;;;6.18;;
29370;SDS011;16357;52.188;7.838;2024-01-06T08:33:18;9.95;;;6.18;;
29370;SDS011;16357;52.188;7.838;2024-01-06T08:35:45;9.27;;;6.10;;
29370;SDS011;16357;52.188;7.838;2024-01-06T08:38:11;9.90;;;5.85;;
29370;SDS011;16357;52.188;7.838;2024-01-06T08:40:38;9.30;;;6.32;;
29370;SDS011;16357;52.188;7.838;2024-01-06T08:43:04;9.98;;;6.30;;
29370;SDS011;16357;52.188;7.838;2024-01-06T08:45:31;8.45;;;6.07;;
29370;SDS011;16357;52.188;7.838;2024-01-06T08:47:57;8.23;;;5.70;;
29370;SDS011;16357;52.188;7.838;2024-01-06T08:50:24;8.95;;;6.07;;
29370;SDS011;16357;52.188;7.838;2024-01-06T08:52:50;12.25;;;6.10;;
29370;SDS011;16357;52.188;7.838;2024-01-06T08:55:17;9.02;;;5.43;;
29370;SDS011;16357;52.188;7.838;2024-01-06T08:57:43;11.38;;;5.55;;
29370;SDS011;16357;52.188;7.838;2024-01-06T09:00:10;8.48;;;5.38;;
29370;SDS011;16357;52.188;7.838;2024-01-06T09:02:37;8.63;;;5.15;;
29370;SDS011;16357;52.188;7.838;2024-01-06T09:05:04;7.13;;;5.05;;
29370;SDS011;16357;52.188;7.838;2024-01-06T09:07:31;6.50;;;4.32;;
29370;SDS011;16357;52.188;7.838;2024-01-06T09:09:57;7.50;;;4.70;;
29370;SDS011;16357;52.188;7.838;2024-01-06T09:12:25;5.65;;;4.22;;
29370;SDS011;16357;52.188;7.838;2024-01-06T09:14:52;8.00;;;4.82;;
29370;SDS011;16357;52.188;7.838;2024-01-06T09:17:18;6.40;;;5.13;;
29370;SDS011;16357;52.188;7.838;2024-01-06T09:19:45;7.68;;;4.97;;
29370;SDS011;16357;52.188;7.838;2024-01-06T09:22:12;7.05;;;5.15;;
29370;SDS011;16357;52.188;7.838;2024-01-06T09:24:39;7.20;;;5.53;;
29370;SDS011;16357;52.188;7.838;2024-01-06T09:27:05;6.85;;;4.93;;
29370;SDS011;16357;52.188;7.838;2024-01-06T09:29:32;5.47;;;4.70;;
29370;SDS011;16357;52.188;7.838;2024-01-06T09:31:58;5.85;;;4.65;;
29370;SDS011;16357;52.188;7.838;2024-01-06T09:34:25;5.22;;;4.18;;
29370;SDS011;16357;52.188;7.838;2024-01-06T09:36:51;6.75;;;4.55;;
29370;SDS011;16357;52.188;7.838;2024-01-06T09:39:18;6.43;;;4.45;;
29370;SDS011;16357;52.188;7.838;2024-01-06T09:41:44;6.28;;;4.63;;
29370;SDS011;16357;52.188;7.838;2024-01-06T09:44:11;7.28;;;5.75;;
29370;SDS011;16357;52.188;7.838;2024-01-06T09:46:41;6.60;;;4.80;;
29370;SDS011;16357;52.188;7.838;2024-01-06T09:49:09;7.10;;;5.70;;
29370;SDS011;16357;52.188;7.838;2024-01-06T09:51:37;9.32;;;5.95;;
29370;SDS011;16357;52.188;7.838;2024-01-06T09:54:08;7.45;;;5.55;;
29370;SDS011;16357;52.188;7.838;2024-01-06T09:56:35;7.80;;;5.97;;
29370;SDS011;16357;52.188;7.838;2024-01-06T09:59:02;8.55;;;6.35;;
29370;SDS011;16357;52.188;7.838;2024-01-06T10:01:28;8.35;;;6.00;;
29370;SDS011;16357;52.188;7.838;2024-01-06T10:03:55;8.88;;;6.15;;
29370;SDS011;16357;52.188;7.838;2024-01-06T10:06:22;10.00;;;6.00;;
29370;SDS011;16357;52.188;7.838;2024-01-06T10:08:49;8.60;;;6.45;;
29370;SDS011;16357;52.188;7.838;2024-01-06T10:11:18;8.80;;;6.20;;
29370;SDS011;16357;52.188;7.838;2024-01-06T10:16:22;8.73;;;5.95;;
29370;SDS011;16357;52.188;7.838;2024-01-06T10:18:49;11.13;;;7.43;;
29370;SDS011;16357;52.188;7.838;2024-01-06T10:21:22;10.85;;;7.30;;
29370;SDS011;16357;52.188;7.838;2024-01-06T10:23:49;10.50;;;7.20;;
29370;SDS011;16357;52.188;7.838;2024-01-06T10:26:17;10.00;;;7.18;;
29370;SDS011;16357;52.188;7.838;2024-01-06T10:28:44;8.43;;;6.72;;
29370;SDS011;16357;52.188;7.838;2024-01-06T10:31:10;10.45;;;6.88;;
29370;SDS011;16357;52.188;7.838;2024-01-06T10:33:37;9.13;;;6.28;;
29370;SDS011;16357;52.188;7.838;2024-01-06T10:36:06;10.02;;;7.22;;
29370;SDS011;16357;52.188;7.838;2024-01-06T10:38:33;11.68;;;7.93;;
29370;SDS011;16357;52.188;7.838;2024-01-06T10:41:01;10.57;;;8.07;;
29370;SDS011;16357;52.188;7.838;2024-01-06T10:43:33;10.43;;;7.40;;
29370;SDS011;16357;52.188;7.838;2024-01-06T10:46:02;9.68;;;6.75;;
29370;SDS011;16357;52.188;7.838;2024-01-06T10:48:34;9.52;;;7.38;;
29370;SDS011;16357;52.188;7.838;2024-01-06T10:51:01;8.20;;;6.22;;
29370;SDS011;16357;52.188;7.838;2024-01-06T10:53:29;13.57;;;8.65;;
29370;SDS011;16357;52.188;7.838;2024-01-06T10:55:56;12.52;;;9.07;;
29370;SDS011;16357;52.188;7.838;2024-01-06T10:58:24;11.10;;;7.38;;
29370;SDS011;16357;52.188;7.838;2024-01-06T11:00:52;9.18;;;7.13;;
29370;SDS011;16357;52.188;7.838;2024-01-06T11:03:21;10.48;;;6.40;;
29370;SDS011;16357;52.188;7.838;2024-01-06T11:05:49;10.02;;;6.70;;
29370;SDS011;16357;52.188;7.838;2024-01-06T11:08:18;9.40;;;6.78;;
29370;SDS011;16357;52.188;7.838;2024-01-06T11:10:47;8.77;;;6.60;;
29370;SDS011;16357;52.188;7.838;2024-01-06T11:13:15;8.45;;;5.90;;
29370;SDS011;16357;52.188;7.838;2024-01-06T11:15:47;8.10;;;5.90;;
29370;SDS011;16357;52.188;7.838;2024-01-06T11:18:34;8.70;;;5.95;;
29370;SDS011;16357;52.188;7.838;2024-01-06T11:21:21;8.88;;;6.35;;
29370;SDS011;16357;52.188;7.838;2024-01-06T11:26:33;10.52;;;7.47;;
29370;SDS011;16357;52.188;7.838;2024-01-06T11:29:00;9.90;;;7.38;;
29370;SDS011;16357;52.188;7.838;2024-01-06T11:31:33;9.32;;;7.00;;
29370;SDS011;16357;52.188;7.838;2024-01-06T11:34:12;11.43;;;8.27;;
29370;SDS011;16357;52.188;7.838;2024-01-06T11:36:43;13.60;;;10.20;;
29370;SDS011;16357;52.188;7.838;2024-01-06T11:42:04;17.13;;;11.30;;
29370;SDS011;16357;52.188;7.838;2024-01-06T11:44:44;15.65;;;10.43;;
29370;SDS011;16357;52.188;7.838;2024-01-06T11:47:11;14.02;;;10.07;;
29370;SDS011;16357;52.188;7.838;2024-01-06T11:49:39;10.30;;;7.95;;
29370;SDS011;16357;52.188;7.838;2024-01-06T11:52:09;10.52;;;6.80;;
29370;SDS011;16357;52.188;7.838;2024-01-06T11:54:36;10.30;;;7.25;;
29370;SDS011;16357;52.188;7.838;2024-01-06T11:57:02;10.00;;;7.40;;
29370;SDS011;16357;52.188;7.838;2024-01-06T11:59:29;8.52;;;7.05;;
29370;SDS011;16357;52.188;7.838;2024-01-06T12:01:56;8.45;;;6.93;;
29370;SDS011;16357;52.188;7.838;2024-01-06T12:04:22;10.38;;;7.53;;
29370;SDS011;16357;52.188;7.838;2024-01-06T12:06:51;9.23;;;6.72;;
29370;SDS011;16357;52.188;7.838;2024-01-06T12:09:18;8.70;;;6.63;;
29370;SDS011;16357;52.188;7.838;2024-01-06T12:11:45;8.77;;;6.70;;
29370;SDS011;16357;52.188;7.838;2024-01-06T12:14:13;10.70;;;7.78;;
29370;SDS011;16357;52.188;7.838;2024-01-06T12:16:39;9.43;;;7.50;;
29370;SDS011;16357;52.188;7.838;2024-01-06T12:19:06;12.88;;;7.35;;
29370;SDS011;16357;52.188;7.838;2024-01-06T12:21:32;10.48;;;7.32;;
29370;SDS011;16357;52.188;7.838;2024-01-06T12:24:17;9.25;;;7.20;;
29370;SDS011;16357;52.188;7.838;2024-01-06T12:26:46;10.18;;;6.97;;
29370;SDS011;16357;52.188;7.838;2024-01-06T12:29:14;10.65;;;7.88;;
29370;SDS011;16357;52.188;7.838;2024-01-06T12:31:40;11.93;;;8.63;;
29370;SDS011;16357;52.188;7.838;2024-01-06T12:34:08;10.63;;;8.40;;
29370;SDS011;16357;52.188;7.838;2024-01-06T12:36:35;13.15;;;8.25;;
29370;SDS011;16357;52.188;7.838;2024-01-06T12:39:03;13.85;;;9.00;;
29370;SDS011;16357;52.188;7.838;2024-01-06T12:41:30;14.32;;;9.00;;
29370;SDS011;16357;52.188;7.838;2024-01-06T12:43:59;13.68;;;9.02;;
29370;SDS011;16357;52.188;7.838;2024-01-06T12:46:28;14.25;;;8.90;;
29370;SDS011;16357;52.188;7.838;2024-01-06T12:48:55;12.20;;;8.23;;
29370;SDS011;16357;52.188;7.838;2024-01-06T12:51:22;10.98;;;8.23;;
29370;SDS011;16357;52.188;7.838;2024-01-06T12:53:49;14.20;;;9.88;;
29370;SDS011;16357;52.188;7.838;2024-01-06T12:56:15;13.60;;;9.27;;
29370;SDS011;16357;52.188;7.838;2024-01-06T12:58:42;21.48;;;8.38;;
29370;SDS011;16357;52.188;7.838;2024-01-06T13:01:09;11.85;;;8.68;;
29370;SDS011;16357;52.188;7.838;2024-01-06T13:03:36;10.23;;;7.53;;
29370;SDS011;16357;52.188;7.838;2024-01-06T13:06:06;9.75;;;7.55;;
29370;SDS011;16357;52.188;7.838;2024-01-06T13:08:32;10.32;;;7.07;;
29370;SDS011;16357;52.188;7.838;2024-01-06T13:10:59;9.13;;;6.78;;
29370;SDS011;16357;52.188;7.838;2024-01-06T13:13:26;10.95;;;7.03;;
29370;SDS011;16357;52.188;7.838;2024-01-06T13:15:52;10.02;;;6.55;;
29370;SDS011;16357;52.188;7.838;2024-01-06T13:18:19;11.63;;;7.43;;
29370;SDS011;16357;52.188;7.838;2024-01-06T13:20:45;11.07;;;7.88;;
29370;SDS011;16357;52.188;7.838;2024-01-06T13:23:12;14.73;;;9.02;;
29370;SDS011;16357;52.188;7.838;2024-01-06T13:25:38;10.32;;;6.65;;
29370;SDS011;16357;52.188;7.838;2024-01-06T13:28:06;8.82;;;6.60;;
29370;SDS011;16357;52.188;7.838;2024-01-06T13:30:33;7.78;;;5.88;;
29370;SDS011;16357;52.188;7.838;2024-01-06T13:33:00;8.52;;;5.88;;
29370;SDS011;16357;52.188;7.838;2024-01-06T13:35:27;15.10;;;9.00;;
29370;SDS011;16357;52.188;7.838;2024-01-06T13:37:55;9.68;;;6.63;;
29370;SDS011;16357;52.188;7.838;2024-01-06T13:40:24;10.73;;;6.75;;
29370;SDS011;16357;52.188;7.838;2024-01-06T13:42:51;9.23;;;6.07;;
29370;SDS011;16357;52.188;7.838;2024-01-06T13:45:18;12.52;;;7.43;;
29370;SDS011;16357;52.188;7.838;2024-01-06T13:47:45;11.82;;;7.25;;
29370;SDS011;16357;52.188;7.838;2024-01-06T13:50:12;10.73;;;6.70;;
29370;SDS011;16357;52.188;7.838;2024-01-06T13:52:40;8.95;;;5.90;;
29370;SDS011;16357;52.188;7.838;2024-01-06T13:55:07;9.80;;;6.72;;
29370;SDS011;16357;52.188;7.838;2024-01-06T13:57:34;5.93;;;4.38;;
29370;SDS011;16357;52.188;7.838;2024-01-06T14:00:01;8.50;;;5.75;;
29370;SDS011;16357;52.188;7.838;2024-01-06T14:02:30;8.00;;;5.00;;
29370;SDS011;16357;52.188;7.838;2024-01-06T14:04:57;9.43;;;5.38;;
29370;SDS011;16357;52.188;7.838;2024-01-06T14:07:23;8.23;;;5.20;;
29370;SDS011;16357;52.188;7.838;2024-01-06T14:09:50;9.30;;;5.63;;
29370;SDS011;16357;52.188;7.838;2024-01-06T14:12:16;8.55;;;4.88;;
29370;SDS011;16357;52.188;7.838;2024-01-06T14:14:43;8.63;;;5.43;;
29370;SDS011;16357;52.188;7.838;2024-01-06T14:17:09;9.13;;;5.63;;
29370;SDS011;16357;52.188;7.838;2024-01-06T14:19:36;9.18;;;6.43;;
29370;SDS011;16357;52.188;7.838;2024-01-06T14:22:02;10.00;;;6.03;;
29370;SDS011;16357;52.188;7.838;2024-01-06T14:24:32;8.05;;;6.15;;
29370;SDS011;16357;52.188;7.838;2024-01-06T14:26:58;9.13;;;6.35;;
29370;SDS011;16357;52.188;7.838;2024-01-06T14:29:25;7.95;;;5.93;;
29370;SDS011;16357;52.188;7.838;2024-01-06T14:31:51;10.20;;;6.57;;
29370;SDS011;16357;52.188;7.838;2024-01-06T14:34:18;11.45;;;6.70;;
29370;SDS011;16357;52.188;7.838;2024-01-06T14:36:45;10.38;;;6.85;;
29370;SDS011;16357;52.188;7.838;2024-01-06T14:39:14;10.20;;;7.38;;
29370;SDS011;16357;52.188;7.838;2024-01-06T14:41:45;8.80;;;5.40;;
29370;SDS011;16357;52.188;7.838;2024-01-06T14:44:11;8.85;;;6.25;;
29370;SDS011;16357;52.188;7.838;2024-01-06T14:46:39;8.00;;;5.50;;
29370;SDS011;16357;52.188;7.838;2024-01-06T14:49:07;7.85;;;5.88;;